Time;durP1;ratioP1;P1;durP2;ratioP2;P2;SDS_P1;SDS_P2;PMS_P1;PMS_P2;Temp;Humidity;BMP_temperature;BMP_pressure;BME280_temperature;BME280_humidity;BME280_pressure;Samples;Min_cycle;Max_cycle;Signal;HPM_P1;HPM_P2
2023/05/25 00:01:42;;;;;;;8.75;5.68;;;;;;;;;;4996085;28;20206;-48
2023/05/25 00:04:10;;;;;;;9.25;5.78;;;;;;;;;;4996197;28;20560;-46
2023/05/25 00:06:39;;;;;;;8.73;5.75;;;;;;;;;;4996177;28;20210;-46
2023/05/25 00:09:07;;;;;;;8.95;6.35;;;;;;;;;;4996081;28;20218;-47
2023/05/25 00:11:34;;;;;;;10.82;6.78;;;;;;;;;;4996001;28;20198;-46
2023/05/25 00:14:01;;;;;;;11.50;7.28;;;;;;;;;;4995997;28;20230;-46
2023/05/25 00:16:28;;;;;;;8.90;6.13;;;;;;;;;;4995976;28;20208;-49
2023/05/25 00:18:56;;;;;;;7.90;5.72;;;;;;;;;;4996246;28;20570;-46
2023/05/25 00:21:24;;;;;;;9.43;6.63;;;;;;;;;;4995701;28;20202;-47
2023/05/25 00:23:51;;;;;;;8.10;5.88;;;;;;;;;;4995658;28;20210;-46
2023/05/25 00:26:18;;;;;;;9.65;6.05;;;;;;;;;;4995560;28;20257;-47
2023/05/25 00:28:46;;;;;;;9.50;6.53;;;;;;;;;;4996098;28;20206;-47
2023/05/25 00:31:13;;;;;;;8.98;6.68;;;;;;;;;;4995826;28;20257;-46
2023/05/25 00:33:41;;;;;;;10.20;7.07;;;;;;;;;;4995546;28;20202;-46
2023/05/25 00:36:08;;;;;;;11.35;7.15;;;;;;;;;;4995407;28;20722;-45
2023/05/25 00:38:35;;;;;;;12.07;7.65;;;;;;;;;;4995369;28;20610;-46
2023/05/25 00:41:04;;;;;;;10.52;7.40;;;;;;;;;;4995629;28;20205;-46
2023/05/25 00:43:32;;;;;;;10.73;7.28;;;;;;;;;;4995517;28;20214;-46
2023/05/25 00:45:59;;;;;;;10.95;7.47;;;;;;;;;;4977968;28;20202;-46
2023/05/25 00:48:27;;;;;;;13.02;7.88;;;;;;;;;;4993968;28;20214;-46
2023/05/25 00:50:56;;;;;;;12.25;8.23;;;;;;;;;;4978292;28;20212;-46
2023/05/25 00:53:25;;;;;;;13.10;8.85;;;;;;;;;;4995026;28;20206;-46
2023/05/25 00:56:03;;;;;;;14.90;9.57;;;;;;;;;;4960841;28;20257;-46
2023/05/25 00:58:33;;;;;;;15.07;8.45;;;;;;;;;;4995236;28;20206;-45
2023/05/25 01:01:02;;;;;;;11.32;7.75;;;;;;;;;;4995217;28;20210;-45
2023/05/25 01:03:34;;;;;;;13.10;7.90;;;;;;;;;;4994885;28;20202;-47
2023/05/25 01:06:03;;;;;;;12.55;8.98;;;;;;;;;;4978769;28;20190;-47
2023/05/25 01:08:32;;;;;;;14.25;9.50;;;;;;;;;;4977695;28;20667;-46
2023/05/25 01:11:02;;;;;;;14.07;9.40;;;;;;;;;;4995067;28;20213;-45
2023/05/25 01:13:31;;;;;;;14.27;9.68;;;;;;;;;;4994663;28;20202;-45
2023/05/25 01:15:58;;;;;;;13.23;9.65;;;;;;;;;;4994581;28;20268;-46
2023/05/25 01:18:26;;;;;;;14.75;10.27;;;;;;;;;;4977578;28;20210;-46
2023/05/25 01:21:02;;;;;;;17.50;10.15;;;;;;;;;;4977591;28;20337;-46
2023/05/25 01:23:32;;;;;;;16.00;9.63;;;;;;;;;;4994831;28;20577;-46
2023/05/25 01:26:02;;;;;;;15.07;9.95;;;;;;;;;;4961714;28;20297;-46
2023/05/25 01:28:41;;;;;;;15.32;10.77;;;;;;;;;;4977328;28;20583;-46
2023/05/25 01:31:08;;;;;;;14.52;9.60;;;;;;;;;;4977475;28;20532;-45
2023/05/25 01:33:36;;;;;;;14.75;10.13;;;;;;;;;;4994374;28;20693;-46
2023/05/25 01:36:03;;;;;;;14.80;10.40;;;;;;;;;;4961064;28;20797;-46
2023/05/25 01:38:31;;;;;;;14.85;10.05;;;;;;;;;;4977424;28;20539;-46
2023/05/25 01:40:58;;;;;;;14.18;10.07;;;;;;;;;;4994202;28;20257;-46
2023/05/25 01:43:26;;;;;;;14.00;10.00;;;;;;;;;;4977026;28;20202;-47
2023/05/25 01:46:13;;;;;;;14.40;11.15;;;;;;;;;;5009547;28;20581;-46
2023/05/25 01:48:53;;;;;;;14.35;10.15;;;;;;;;;;4976964;28;20202;-47
2023/05/25 01:51:35;;;;;;;16.20;10.15;;;;;;;;;;5009089;28;20190;-47
2023/05/25 01:54:14;;;;;;;15.95;10.15;;;;;;;;;;4976598;28;20741;-46
2023/05/25 01:56:45;;;;;;;17.77;11.02;;;;;;;;;;4993879;28;20229;-45
2023/05/25 01:59:15;;;;;;;16.90;11.18;;;;;;;;;;4976580;28;20213;-46
2023/05/25 02:01:42;;;;;;;17.67;11.27;;;;;;;;;;4960606;28;20289;-47
2023/05/25 02:04:10;;;;;;;15.82;10.90;;;;;;;;;;4976437;28;20212;-47
2023/05/25 02:06:37;;;;;;;17.35;11.52;;;;;;;;;;4994088;28;20210;-46
2023/05/25 02:09:05;;;;;;;17.67;12.07;;;;;;;;;;4993949;28;20210;-49
2023/05/25 02:11:32;;;;;;;20.40;12.48;;;;;;;;;;4976364;28;20685;-47
2023/05/25 02:14:00;;;;;;;19.17;11.90;;;;;;;;;;4976345;28;20206;-46
2023/05/25 02:16:28;;;;;;;19.77;12.30;;;;;;;;;;4977062;28;20619;-47
2023/05/25 02:18:59;;;;;;;17.95;11.65;;;;;;;;;;4997844;28;20574;-48
2023/05/25 02:21:27;;;;;;;20.42;12.32;;;;;;;;;;4997630;28;20213;-46
2023/05/25 02:23:56;;;;;;;17.20;12.00;;;;;;;;;;4997519;28;20741;-46
2023/05/25 02:26:24;;;;;;;20.70;12.85;;;;;;;;;;4980281;28;20615;-46
2023/05/25 02:28:51;;;;;;;16.70;11.98;;;;;;;;;;4996469;28;20213;-46
2023/05/25 02:31:18;;;;;;;19.77;13.23;;;;;;;;;;4980249;28;20327;-46
2023/05/25 02:33:46;;;;;;;18.48;12.30;;;;;;;;;;4995615;28;20210;-46
2023/05/25 02:36:13;;;;;;;17.13;12.43;;;;;;;;;;4978636;28;20229;-47
2023/05/25 02:38:41;;;;;;;20.40;12.98;;;;;;;;;;4997407;28;20213;-48
2023/05/25 02:41:08;;;;;;;19.45;13.25;;;;;;;;;;4978582;28;20210;-47
2023/05/25 02:43:36;;;;;;;18.83;13.95;;;;;;;;;;4996578;28;20201;-46
2023/05/25 02:46:03;;;;;;;19.73;13.65;;;;;;;;;;4979866;28;20214;-47
2023/05/25 02:48:31;;;;;;;19.38;13.05;;;;;;;;;;4997384;28;20559;-48
2023/05/25 02:50:58;;;;;;;17.98;12.88;;;;;;;;;;4979929;28;20757;-46
2023/05/25 02:53:25;;;;;;;21.20;13.13;;;;;;;;;;4997450;28;20210;-46
2023/05/25 02:55:52;;;;;;;22.70;14.10;;;;;;;;;;4976719;28;20238;-48
2023/05/25 02:58:23;;;;;;;22.92;14.10;;;;;;;;;;4976640;28;20203;-46
2023/05/25 03:01:16;;;;;;;21.83;14.48;;;;;;;;;;4978026;28;20262;-47
2023/05/25 03:03:51;;;;;;;21.73;13.40;;;;;;;;;;4977707;28;20195;-45
2023/05/25 03:06:21;;;;;;;21.25;13.45;;;;;;;;;;4976640;28;20298;-47
2023/05/25 03:08:53;;;;;;;19.73;13.52;;;;;;;;;;4976509;28;20207;-47
2023/05/25 03:11:21;;;;;;;21.42;13.00;;;;;;;;;;4977651;28;20207;-46
2023/05/25 03:13:50;;;;;;;20.30;12.15;;;;;;;;;;4976164;28;20237;-46
2023/05/25 03:16:21;;;;;;;20.92;12.68;;;;;;;;;;4976291;28;20250;-46
2023/05/25 03:18:49;;;;;;;17.63;12.32;;;;;;;;;;4976746;28;20210;-47
2023/05/25 03:21:16;;;;;;;19.38;13.25;;;;;;;;;;4976153;28;20205;-46
2023/05/25 03:23:44;;;;;;;20.27;12.63;;;;;;;;;;4976572;28;20242;-46
2023/05/25 03:26:11;;;;;;;17.88;12.35;;;;;;;;;;4976559;28;20234;-46
2023/05/25 03:28:39;;;;;;;18.90;12.48;;;;;;;;;;4975095;28;20213;-47
2023/05/25 03:31:07;;;;;;;18.92;13.65;;;;;;;;;;4977314;28;20209;-46
2023/05/25 03:33:34;;;;;;;21.02;12.63;;;;;;;;;;4976091;28;20206;-46
2023/05/25 03:36:06;;;;;;;16.38;12.00;;;;;;;;;;4975952;28;20232;-47
2023/05/25 03:38:37;;;;;;;22.00;12.95;;;;;;;;;;4977354;28;20671;-46
2023/05/25 03:41:04;;;;;;;17.67;12.27;;;;;;;;;;4977023;28;20294;-49
2023/05/25 03:43:31;;;;;;;21.17;12.75;;;;;;;;;;4976069;28;20207;-46
2023/05/25 03:45:58;;;;;;;19.38;13.35;;;;;;;;;;4975838;28;20213;-47
2023/05/25 03:48:26;;;;;;;19.77;13.38;;;;;;;;;;4977079;28;20207;-49
2023/05/25 03:50:53;;;;;;;23.50;13.80;;;;;;;;;;4973780;28;20763;-48
2023/05/25 03:53:21;;;;;;;19.75;12.55;;;;;;;;;;4979509;28;20202;-47
2023/05/25 03:55:50;;;;;;;18.88;12.77;;;;;;;;;;4975461;28;20274;-47
2023/05/25 03:58:20;;;;;;;19.42;12.73;;;;;;;;;;4975998;28;20202;-47
2023/05/25 04:00:50;;;;;;;21.80;14.77;;;;;;;;;;4942864;29;20322;-48
2023/05/25 04:03:19;;;;;;;22.33;13.63;;;;;;;;;;4963667;28;20199;-47
2023/05/25 04:05:46;;;;;;;18.90;12.82;;;;;;;;;;4976551;28;20203;-47
2023/05/25 04:08:21;;;;;;;20.95;12.57;;;;;;;;;;4976778;28;20202;-48
2023/05/25 04:10:48;;;;;;;19.70;12.75;;;;;;;;;;4975478;28;20251;-47
2023/05/25 04:13:15;;;;;;;20.00;13.15;;;;;;;;;;4963474;28;20286;-47
2023/05/25 04:15:42;;;;;;;22.33;13.82;;;;;;;;;;4973957;28;20773;-47
2023/05/25 04:18:18;;;;;;;22.98;13.50;;;;;;;;;;4974497;28;20234;-47
2023/05/25 04:20:46;;;;;;;25.98;13.10;;;;;;;;;;4974337;28;20695;-48
2023/05/25 04:23:15;;;;;;;21.60;13.93;;;;;;;;;;4974296;28;20223;-47
2023/05/25 04:25:44;;;;;;;20.25;13.55;;;;;;;;;;4974393;28;20297;-47
2023/05/25 04:28:13;;;;;;;21.80;13.45;;;;;;;;;;4974268;28;20219;-48
2023/05/25 04:30:55;;;;;;;20.92;13.57;;;;;;;;;;4974855;28;20301;-46
2023/05/25 04:33:58;;;;;;;17.75;12.07;;;;;;;;;;4972349;28;20227;-46
2023/05/25 04:36:33;;;;;;;20.73;13.07;;;;;;;;;;4973052;28;20238;-47
2023/05/25 04:39:04;;;;;;;20.50;12.75;;;;;;;;;;4988957;28;20287;-49
2023/05/25 04:41:35;;;;;;;20.48;13.50;;;;;;;;;;4956707;28;20219;-47
2023/05/25 04:44:06;;;;;;;18.80;12.30;;;;;;;;;;4956710;28;20230;-47
2023/05/25 04:46:46;;;;;;;19.33;13.07;;;;;;;;;;4972927;28;20233;-47
2023/05/25 04:49:20;;;;;;;22.70;14.00;;;;;;;;;;4956559;28;20223;-47
2023/05/25 04:51:47;;;;;;;22.30;13.45;;;;;;;;;;4980591;28;20954;-47
2023/05/25 04:54:14;;;;;;;19.67;13.38;;;;;;;;;;4969698;28;20607;-48
2023/05/25 04:56:42;;;;;;;22.27;13.70;;;;;;;;;;4969467;28;20591;-49
2023/05/25 04:59:09;;;;;;;23.33;14.13;;;;;;;;;;4969123;28;20224;-48
2023/05/25 05:01:39;;;;;;;19.67;13.52;;;;;;;;;;4950819;28;20315;-47
2023/05/25 05:04:10;;;;;;;19.70;13.45;;;;;;;;;;4977924;28;20392;-49
2023/05/25 05:06:38;;;;;;;21.38;13.68;;;;;;;;;;4976625;28;20242;-48
2023/05/25 05:09:07;;;;;;;20.83;13.85;;;;;;;;;;4981610;28;20226;-47
2023/05/25 05:11:34;;;;;;;22.25;14.10;;;;;;;;;;4981683;28;20729;-46
2023/05/25 05:14:03;;;;;;;21.42;13.82;;;;;;;;;;4981410;28;20237;-50
2023/05/25 05:16:33;;;;;;;19.15;13.82;;;;;;;;;;4982735;28;20237;-48
2023/05/25 05:19:01;;;;;;;21.35;13.98;;;;;;;;;;4981622;28;20250;-48
2023/05/25 05:21:29;;;;;;;20.63;13.90;;;;;;;;;;4982506;28;20237;-55
2023/05/25 05:23:57;;;;;;;23.58;15.32;;;;;;;;;;4983834;28;20233;-48
2023/05/25 05:26:24;;;;;;;24.48;13.75;;;;;;;;;;4983073;28;20214;-48
2023/05/25 05:28:51;;;;;;;20.77;14.32;;;;;;;;;;4980867;28;20234;-49
2023/05/25 05:31:20;;;;;;;20.45;13.48;;;;;;;;;;4973220;28;20241;-47
2023/05/25 05:33:47;;;;;;;22.40;14.23;;;;;;;;;;4978685;28;20252;-47
2023/05/25 05:36:16;;;;;;;22.23;13.38;;;;;;;;;;4974959;28;20285;-47
2023/05/25 05:38:45;;;;;;;25.13;13.95;;;;;;;;;;5015591;28;20230;-46
2023/05/25 05:41:13;;;;;;;23.23;15.27;;;;;;;;;;4980460;28;20270;-46
2023/05/25 05:43:45;;;;;;;25.60;14.80;;;;;;;;;;4966110;28;20919;-47
2023/05/25 05:46:12;;;;;;;22.95;14.45;;;;;;;;;;4969361;28;20238;-46
2023/05/25 05:48:40;;;;;;;23.08;14.82;;;;;;;;;;4980572;28;20230;-47
2023/05/25 05:51:08;;;;;;;22.92;14.35;;;;;;;;;;4965485;28;20214;-46
2023/05/25 05:53:36;;;;;;;25.20;15.32;;;;;;;;;;4979794;28;20315;-46
2023/05/25 05:56:04;;;;;;;23.70;15.48;;;;;;;;;;4982956;28;20284;-46
2023/05/25 05:58:32;;;;;;;27.08;15.98;;;;;;;;;;4981992;28;20293;-46
2023/05/25 06:01:00;;;;;;;24.75;15.60;;;;;;;;;;4978996;28;20222;-46
2023/05/25 06:03:28;;;;;;;23.85;15.48;;;;;;;;;;4981914;28;20225;-48
2023/05/25 06:05:55;;;;;;;24.48;15.20;;;;;;;;;;4982997;28;20218;-46
2023/05/25 06:08:23;;;;;;;26.50;15.88;;;;;;;;;;4982073;28;20218;-46
2023/05/25 06:10:50;;;;;;;22.05;14.30;;;;;;;;;;4981244;28;20551;-49
2023/05/25 06:13:19;;;;;;;24.67;15.50;;;;;;;;;;4980645;28;20222;-51
2023/05/25 06:15:46;;;;;;;25.40;15.15;;;;;;;;;;4981558;28;20253;-51
2023/05/25 06:18:20;;;;;;;22.88;14.25;;;;;;;;;;4979849;28;20225;-47
2023/05/25 06:20:47;;;;;;;27.83;16.45;;;;;;;;;;4981205;28;20313;-50
2023/05/25 06:23:17;;;;;;;23.60;15.23;;;;;;;;;;4977867;28;20205;-50
2023/05/25 06:25:45;;;;;;;24.38;14.32;;;;;;;;;;4982722;28;20683;-47
2023/05/25 06:28:14;;;;;;;25.35;14.65;;;;;;;;;;4981184;28;20216;-48
2023/05/25 06:30:41;;;;;;;24.48;14.32;;;;;;;;;;4981324;28;20286;-50
2023/05/25 06:33:09;;;;;;;26.00;15.07;;;;;;;;;;4973345;28;20574;-52
2023/05/25 06:35:36;;;;;;;27.52;16.33;;;;;;;;;;4978652;28;20222;-50
2023/05/25 06:38:05;;;;;;;28.60;16.08;;;;;;;;;;4980726;28;20198;-50
2023/05/25 06:40:32;;;;;;;25.50;14.95;;;;;;;;;;4981498;28;20210;-48
2023/05/25 06:42:59;;;;;;;26.08;16.73;;;;;;;;;;4983809;28;20209;-53
2023/05/25 06:45:40;;;;;;;26.42;16.67;;;;;;;;;;4980251;28;20205;-47
2023/05/25 06:48:08;;;;;;;27.98;16.48;;;;;;;;;;4982971;28;20230;-48
2023/05/25 06:50:35;;;;;;;29.70;16.05;;;;;;;;;;4977042;28;20230;-48
2023/05/25 06:53:03;;;;;;;25.98;15.55;;;;;;;;;;4982813;28;20284;-48
2023/05/25 06:55:30;;;;;;;30.92;17.02;;;;;;;;;;4976080;28;20798;-48
2023/05/25 06:57:57;;;;;;;27.90;15.90;;;;;;;;;;5000616;28;20194;-49
2023/05/25 07:00:25;;;;;;;28.70;16.35;;;;;;;;;;5003358;28;20194;-48
2023/05/25 07:02:52;;;;;;;31.38;18.05;;;;;;;;;;5003138;28;20205;-48
2023/05/25 07:05:20;;;;;;;30.85;17.15;;;;;;;;;;5005629;28;20655;-50
2023/05/25 07:07:48;;;;;;;25.98;15.95;;;;;;;;;;5004816;28;20203;-47
2023/05/25 07:10:15;;;;;;;24.90;15.57;;;;;;;;;;5006552;28;20229;-47
2023/05/25 07:12:43;;;;;;;28.02;17.27;;;;;;;;;;4997462;28;20198;-49
2023/05/25 07:15:10;;;;;;;27.50;15.35;;;;;;;;;;4995002;28;20206;-50
2023/05/25 07:17:37;;;;;;;27.65;15.65;;;;;;;;;;4994255;28;20229;-49
2023/05/25 07:20:05;;;;;;;25.45;14.55;;;;;;;;;;4993918;28;20911;-48
2023/05/25 07:22:32;;;;;;;25.25;15.38;;;;;;;;;;4988867;28;20593;-48
2023/05/25 07:24:59;;;;;;;25.20;15.38;;;;;;;;;;4995629;28;20312;-48
2023/05/25 07:27:29;;;;;;;29.38;15.15;;;;;;;;;;4999556;28;20224;-48
2023/05/25 07:29:56;;;;;;;28.70;17.52;;;;;;;;;;5003133;28;20236;-49
2023/05/25 07:32:23;;;;;;;24.95;15.30;;;;;;;;;;5005389;28;20217;-50
2023/05/25 07:34:50;;;;;;;26.00;16.25;;;;;;;;;;5002524;28;20572;-48
2023/05/25 07:37:17;;;;;;;26.77;16.05;;;;;;;;;;5006763;28;20567;-48
2023/05/25 07:39:44;;;;;;;28.83;16.75;;;;;;;;;;5004724;28;20265;-48
2023/05/25 07:42:12;;;;;;;28.83;15.38;;;;;;;;;;5004053;28;20224;-47
2023/05/25 07:44:38;;;;;;;30.95;16.85;;;;;;;;;;5005431;28;20228;-48
2023/05/25 07:47:06;;;;;;;24.83;16.30;;;;;;;;;;5000210;28;20612;-49
2023/05/25 07:49:33;;;;;;;25.85;14.85;;;;;;;;;;4994954;28;20230;-52
2023/05/25 07:52:02;;;;;;;30.42;15.80;;;;;;;;;;4994657;28;20710;-50
2023/05/25 07:54:29;;;;;;;28.20;15.95;;;;;;;;;;4995061;28;20746;-52
2023/05/25 07:56:56;;;;;;;28.40;16.13;;;;;;;;;;4994787;28;20230;-50
2023/05/25 07:59:25;;;;;;;24.40;15.48;;;;;;;;;;4994976;28;20217;-47
2023/05/25 08:01:52;;;;;;;26.27;15.77;;;;;;;;;;4994950;28;20238;-48
2023/05/25 08:04:19;;;;;;;28.13;16.02;;;;;;;;;;4995341;28;20244;-48
2023/05/25 08:06:46;;;;;;;25.25;14.80;;;;;;;;;;4994159;28;20261;-50
2023/05/25 08:09:13;;;;;;;33.85;16.10;;;;;;;;;;4995196;28;20226;-50
2023/05/25 08:11:40;;;;;;;29.92;16.20;;;;;;;;;;4994498;28;20233;-45
2023/05/25 08:14:08;;;;;;;27.85;15.95;;;;;;;;;;4994338;28;20234;-47
2023/05/25 08:16:35;;;;;;;30.35;15.35;;;;;;;;;;4994646;28;20313;-50
2023/05/25 08:19:03;;;;;;;34.80;17.20;;;;;;;;;;4994803;28;20226;-50
2023/05/25 08:21:33;;;;;;;31.25;17.25;;;;;;;;;;4976687;28;20228;-50
2023/05/25 08:24:03;;;;;;;33.05;16.67;;;;;;;;;;4994343;28;20230;-49
2023/05/25 08:26:30;;;;;;;28.23;15.35;;;;;;;;;;4994508;28;20229;-50
2023/05/25 08:29:18;;;;;;;29.52;16.98;;;;;;;;;;4994762;28;20222;-49
2023/05/25 08:31:48;;;;;;;33.67;18.30;;;;;;;;;;4993959;28;20241;-52
2023/05/25 08:34:15;;;;;;;32.22;17.42;;;;;;;;;;4994667;28;20233;-49
2023/05/25 08:36:43;;;;;;;27.60;15.80;;;;;;;;;;4983157;28;20581;-47
2023/05/25 08:39:11;;;;;;;29.15;16.73;;;;;;;;;;4981573;28;20582;-49
2023/05/25 08:41:42;;;;;;;29.00;15.98;;;;;;;;;;5012463;28;20225;-48
2023/05/25 08:44:10;;;;;;;31.38;17.13;;;;;;;;;;5013751;28;20755;-48
2023/05/25 08:46:37;;;;;;;27.63;15.57;;;;;;;;;;5013452;28;20724;-48
2023/05/25 08:49:09;;;;;;;28.63;16.25;;;;;;;;;;5013138;28;20276;-48
2023/05/25 08:51:39;;;;;;;31.75;17.42;;;;;;;;;;4979754;28;20249;-47
2023/05/25 08:54:11;;;;;;;32.75;16.70;;;;;;;;;;4977254;28;20226;-47
2023/05/25 08:56:45;;;;;;;29.05;16.58;;;;;;;;;;4993951;28;20233;-47
2023/05/25 08:59:31;;;;;;;29.35;16.27;;;;;;;;;;4976893;28;20745;-47
2023/05/25 09:02:07;;;;;;;33.00;17.60;;;;;;;;;;4993914;28;20709;-48
2023/05/25 09:04:35;;;;;;;31.33;17.25;;;;;;;;;;4976106;28;20225;-48
2023/05/25 09:07:03;;;;;;;28.98;16.88;;;;;;;;;;4995985;28;20224;-47
2023/05/25 09:09:38;;;;;;;31.75;17.23;;;;;;;;;;4994736;28;20222;-49
2023/05/25 09:12:06;;;;;;;30.40;15.88;;;;;;;;;;4977130;28;20228;-49
2023/05/25 09:14:34;;;;;;;30.92;16.88;;;;;;;;;;5000431;28;20558;-49
2023/05/25 09:17:02;;;;;;;26.65;15.32;;;;;;;;;;4999175;28;20234;-48
2023/05/25 09:19:29;;;;;;;30.77;15.95;;;;;;;;;;4981031;28;20233;-48
2023/05/25 09:21:56;;;;;;;34.15;16.13;;;;;;;;;;4995344;28;20237;-47
2023/05/25 09:24:42;;;;;;;26.23;15.60;;;;;;;;;;4993119;28;20280;-47
2023/05/25 09:27:11;;;;;;;29.40;15.75;;;;;;;;;;4992656;28;20222;-49
2023/05/25 09:29:38;;;;;;;32.72;15.63;;;;;;;;;;4988083;28;20215;-47
2023/05/25 09:32:05;;;;;;;27.05;16.33;;;;;;;;;;4986844;28;20598;-47
2023/05/25 09:39:41;;;;;;;29.38;14.80;;;;;;;;;;4907661;22;21159;-52
2023/05/25 09:42:12;;;;;;;29.13;14.45;;;;;;;;;;5040235;28;20631;-47
2023/05/25 09:44:41;;;;;;;25.83;15.30;;;;;;;;;;5050218;28;20223;-46
2023/05/25 09:47:09;;;;;;;25.60;14.75;;;;;;;;;;5042083;28;20215;-46
2023/05/25 09:49:37;;;;;;;22.30;14.30;;;;;;;;;;5027981;28;20224;-47
2023/05/25 09:52:05;;;;;;;27.45;15.27;;;;;;;;;;5046010;28;20285;-46
2023/05/25 09:54:32;;;;;;;35.53;18.17;;;;;;;;;;5032764;28;20255;-44
2023/05/25 09:57:02;;;;;;;27.13;15.82;;;;;;;;;;5051112;28;20707;-46
2023/05/25 09:59:29;;;;;;;34.25;17.67;;;;;;;;;;5052570;28;20216;-44
2023/05/25 10:01:57;;;;;;;27.98;16.35;;;;;;;;;;5052264;28;20707;-46
2023/05/25 10:04:25;;;;;;;30.13;17.20;;;;;;;;;;5051697;28;20683;-44
2023/05/25 10:06:52;;;;;;;26.77;15.55;;;;;;;;;;5050567;28;20228;-44
2023/05/25 10:09:20;;;;;;;33.75;18.35;;;;;;;;;;5019478;28;20705;-44
2023/05/25 10:11:50;;;;;;;28.05;15.75;;;;;;;;;;5032749;28;20720;-44
2023/05/25 10:14:23;;;;;;;29.92;16.10;;;;;;;;;;5032852;28;20278;-43
2023/05/25 10:16:58;;;;;;;33.88;16.63;;;;;;;;;;5032404;28;20236;-44
2023/05/25 10:19:42;;;;;;;29.17;16.00;;;;;;;;;;5032746;28;20223;-44
2023/05/25 10:22:12;;;;;;;27.48;15.80;;;;;;;;;;5027173;28;20212;-43
2023/05/25 10:24:56;;;;;;;25.45;14.73;;;;;;;;;;5035014;28;20714;-43
2023/05/25 10:27:24;;;;;;;30.13;15.95;;;;;;;;;;5045153;28;20274;-43
2023/05/25 10:29:58;;;;;;;27.88;14.60;;;;;;;;;;5032769;28;20220;-43
2023/05/25 10:32:26;;;;;;;27.10;15.55;;;;;;;;;;5050426;28;20232;-44
2023/05/25 10:34:55;;;;;;;33.15;16.95;;;;;;;;;;5029708;28;20215;-44
2023/05/25 10:37:25;;;;;;;27.58;15.93;;;;;;;;;;5042393;28;20223;-45
2023/05/25 10:39:54;;;;;;;25.23;14.82;;;;;;;;;;5049317;28;20692;-46
2023/05/25 10:42:22;;;;;;;25.52;13.93;;;;;;;;;;5025988;28;20216;-46
2023/05/25 10:44:49;;;;;;;21.25;13.20;;;;;;;;;;5039310;28;20231;-45
2023/05/25 10:47:17;;;;;;;25.45;14.93;;;;;;;;;;5018698;28;20585;-46
2023/05/25 10:49:56;;;;;;;23.75;13.13;;;;;;;;;;5021125;28;20636;-46
2023/05/25 10:52:30;;;;;;;25.80;15.23;;;;;;;;;;5045746;28;20258;-45
2023/05/25 10:55:00;;;;;;;23.40;14.52;;;;;;;;;;5055192;28;20323;-46
2023/05/25 10:57:28;;;;;;;21.38;12.48;;;;;;;;;;5055391;28;20285;-49
2023/05/25 11:00:00;;;;;;;22.80;12.80;;;;;;;;;;5055573;28;20565;-47
2023/05/25 11:02:28;;;;;;;21.05;12.70;;;;;;;;;;5055775;28;20235;-46
2023/05/25 11:05:26;;;;;;;24.77;13.88;;;;;;;;;;5054944;28;20757;-45
2023/05/25 11:07:55;;;;;;;27.55;13.10;;;;;;;;;;5055302;28;20727;-46
2023/05/25 11:10:52;;;;;;;23.73;14.13;;;;;;;;;;5053448;28;20605;-46
2023/05/25 11:13:31;;;;;;;21.25;12.82;;;;;;;;;;4954785;29;20227;-49
2023/05/25 11:16:21;;;;;;;22.40;12.55;;;;;;;;;;4938531;29;20230;-46
2023/05/25 11:18:57;;;;;;;21.85;12.50;;;;;;;;;;4954892;29;20304;-47
2023/05/25 11:21:27;;;;;;;20.67;12.13;;;;;;;;;;4943846;29;20322;-45
2023/05/25 11:23:55;;;;;;;21.58;12.02;;;;;;;;;;4937680;29;20242;-46
2023/05/25 11:26:25;;;;;;;24.08;14.18;;;;;;;;;;4935619;29;20234;-46
2023/05/25 11:28:53;;;;;;;23.33;13.02;;;;;;;;;;4954647;29;20259;-46
2023/05/25 11:31:27;;;;;;;21.17;12.48;;;;;;;;;;4951919;29;20235;-48
2023/05/25 11:33:57;;;;;;;23.67;12.07;;;;;;;;;;4954284;29;20286;-45
2023/05/25 11:36:24;;;;;;;21.80;13.75;;;;;;;;;;4948485;29;20259;-45
2023/05/25 11:38:52;;;;;;;25.45;13.50;;;;;;;;;;4939803;29;20236;-45
2023/05/25 11:41:35;;;;;;;25.73;14.13;;;;;;;;;;4947694;29;20240;-47
2023/05/25 11:44:06;;;;;;;23.88;13.77;;;;;;;;;;4945970;29;20279;-48
2023/05/25 11:46:33;;;;;;;22.63;13.68;;;;;;;;;;4938533;29;20657;-45
2023/05/25 11:49:01;;;;;;;29.40;13.77;;;;;;;;;;4959238;28;20552;-46
2023/05/25 11:51:29;;;;;;;22.85;13.38;;;;;;;;;;5043371;28;20228;-43
2023/05/25 11:53:56;;;;;;;23.33;13.52;;;;;;;;;;5044579;28;20228;-44
2023/05/25 11:56:23;;;;;;;20.88;13.15;;;;;;;;;;5045578;28;20555;-43
2023/05/25 11:59:06;;;;;;;22.98;13.27;;;;;;;;;;5054211;28;20800;-45
2023/05/25 12:01:33;;;;;;;22.50;12.82;;;;;;;;;;5054252;28;20228;-44
2023/05/25 12:04:07;;;;;;;21.58;12.55;;;;;;;;;;5053640;28;20228;-44
2023/05/25 12:06:37;;;;;;;22.98;12.65;;;;;;;;;;5037267;28;20224;-43
2023/05/25 12:09:12;;;;;;;21.55;13.15;;;;;;;;;;5054727;28;20224;-43
2023/05/25 12:11:44;;;;;;;22.52;13.15;;;;;;;;;;5054711;28;20589;-45
2023/05/25 12:14:11;;;;;;;26.20;14.30;;;;;;;;;;5043011;28;20217;-46
2023/05/25 12:16:40;;;;;;;23.67;12.52;;;;;;;;;;5047533;28;20223;-44
2023/05/25 12:19:10;;;;;;;18.63;12.00;;;;;;;;;;5043316;28;20267;-44
2023/05/25 12:21:39;;;;;;;24.63;13.43;;;;;;;;;;5024824;28;20247;-43
2023/05/25 12:24:08;;;;;;;23.65;13.20;;;;;;;;;;5023301;28;20629;-44
2023/05/25 12:26:46;;;;;;;21.15;12.88;;;;;;;;;;5050464;28;20303;-44
2023/05/25 12:29:13;;;;;;;22.42;12.95;;;;;;;;;;5048757;28;20269;-44
2023/05/25 12:31:41;;;;;;;20.85;12.45;;;;;;;;;;5035172;28;20622;-44
2023/05/25 12:34:11;;;;;;;15.40;9.90;;;;;;;;;;5015592;28;20228;-43
2023/05/25 12:36:46;;;;;;;13.48;8.63;;;;;;;;;;5034111;28;20750;-45
2023/05/25 12:39:15;;;;;;;16.95;10.48;;;;;;;;;;5046232;28;20572;-46
2023/05/25 12:41:48;;;;;;;14.65;9.15;;;;;;;;;;5051770;28;20228;-44
2023/05/25 12:44:20;;;;;;;17.60;9.90;;;;;;;;;;5041273;28;20212;-45
2023/05/25 12:46:51;;;;;;;16.42;10.00;;;;;;;;;;5048573;28;20220;-44
2023/05/25 12:49:30;;;;;;;16.58;8.93;;;;;;;;;;5045672;28;20331;-44
2023/05/25 12:51:58;;;;;;;18.92;10.80;;;;;;;;;;5041879;28;20223;-44
2023/05/25 12:54:44;;;;;;;19.42;10.52;;;;;;;;;;5041112;28;20227;-44
2023/05/25 12:57:13;;;;;;;17.88;10.27;;;;;;;;;;5040770;28;20246;-46
2023/05/25 12:59:42;;;;;;;17.40;10.85;;;;;;;;;;5046217;28;20281;-43
2023/05/25 13:02:10;;;;;;;18.00;10.27;;;;;;;;;;5044623;28;20255;-44
2023/05/25 13:04:40;;;;;;;15.93;10.00;;;;;;;;;;5046815;28;20301;-40
2023/05/25 13:07:08;;;;;;;18.17;10.38;;;;;;;;;;5047862;28;20216;-40
2023/05/25 13:09:36;;;;;;;17.02;10.73;;;;;;;;;;5040741;28;20220;-41
2023/05/25 13:12:03;;;;;;;16.95;10.07;;;;;;;;;;5046743;28;20231;-41
2023/05/25 13:14:31;;;;;;;16.95;10.20;;;;;;;;;;5037103;28;20220;-42
2023/05/25 13:16:58;;;;;;;14.65;9.93;;;;;;;;;;5036462;28;20224;-40
2023/05/25 13:19:25;;;;;;;21.58;11.77;;;;;;;;;;5031332;28;20235;-41
2023/05/25 13:21:54;;;;;;;15.30;9.90;;;;;;;;;;5031559;28;20225;-42
2023/05/25 13:24:23;;;;;;;16.17;9.88;;;;;;;;;;5031160;28;20278;-42
2023/05/25 13:26:50;;;;;;;15.75;10.00;;;;;;;;;;5031808;28;20233;-44
2023/05/25 13:29:17;;;;;;;18.67;10.65;;;;;;;;;;5031449;28;20232;-44
2023/05/25 13:31:45;;;;;;;21.90;10.77;;;;;;;;;;5031913;28;20680;-40
2023/05/25 13:34:13;;;;;;;16.17;9.95;;;;;;;;;;5033192;28;20621;-41
2023/05/25 13:36:40;;;;;;;16.48;10.40;;;;;;;;;;5033239;28;20233;-41
2023/05/25 13:39:12;;;;;;;15.57;10.27;;;;;;;;;;5035359;28;20246;-42
2023/05/25 13:41:39;;;;;;;15.48;9.57;;;;;;;;;;5048413;28;20234;-41
2023/05/25 13:44:07;;;;;;;15.50;10.77;;;;;;;;;;5052735;28;20712;-41
2023/05/25 13:46:36;;;;;;;14.98;10.43;;;;;;;;;;5052523;28;20224;-40
2023/05/25 13:49:03;;;;;;;15.65;9.88;;;;;;;;;;5051599;28;20242;-41
2023/05/25 13:51:34;;;;;;;14.70;9.45;;;;;;;;;;5052917;28;20228;-42
2023/05/25 13:54:01;;;;;;;16.48;10.75;;;;;;;;;;5052579;28;20311;-41
2023/05/25 13:56:29;;;;;;;16.38;10.05;;;;;;;;;;5018601;28;20230;-41
2023/05/25 13:58:56;;;;;;;16.50;10.50;;;;;;;;;;5049636;28;20236;-41
2023/05/25 14:01:27;;;;;;;16.23;10.10;;;;;;;;;;5052484;28;20716;-40
2023/05/25 14:03:54;;;;;;;17.90;9.40;;;;;;;;;;5052754;28;20227;-41
2023/05/25 14:06:22;;;;;;;17.33;9.05;;;;;;;;;;5052609;28;20224;-40
2023/05/25 14:08:49;;;;;;;16.25;10.40;;;;;;;;;;5052737;28;20727;-41
2023/05/25 14:11:17;;;;;;;16.10;10.52;;;;;;;;;;5052662;28;20269;-40
2023/05/25 14:13:52;;;;;;;16.52;10.57;;;;;;;;;;5045241;28;20282;-43
2023/05/25 14:16:20;;;;;;;14.80;10.38;;;;;;;;;;5032193;28;20224;-41
2023/05/25 14:18:47;;;;;;;15.50;9.70;;;;;;;;;;5032947;28;20236;-41
2023/05/25 14:21:15;;;;;;;15.25;9.73;;;;;;;;;;5032824;28;20232;-40
2023/05/25 14:23:42;;;;;;;13.65;9.70;;;;;;;;;;5039931;28;20223;-41
2023/05/25 14:26:09;;;;;;;14.98;9.65;;;;;;;;;;5052495;28;20243;-40
2023/05/25 14:28:36;;;;;;;17.77;10.57;;;;;;;;;;5052469;28;20232;-41
2023/05/25 14:31:05;;;;;;;15.35;10.00;;;;;;;;;;5051877;28;20228;-41
2023/05/25 14:33:32;;;;;;;14.05;9.82;;;;;;;;;;5052463;28;20310;-40
2023/05/25 14:35:59;;;;;;;12.82;9.35;;;;;;;;;;5052191;28;20285;-41
2023/05/25 14:38:26;;;;;;;13.75;8.93;;;;;;;;;;5052472;28;20247;-41